Main page
METAR-TAF:

METAR-TAF

Airports :

Lal Bahadur Shastri International Airport

Varanasi, India

latitude: 25-27N, longitude: 082-52E, elevation: 81 m

Current weather observation

The report was made 38 minutes ago, at 03:00 UTC
Calm wind
Temperature 15°C
Humidity 88%
Pressure 1016 hPa
Visibility: 0500 m
fog

METAR: VEBN 110300Z 00000KT 0500 R27/0600 FG NSC 15/13 Q1016 NOSIG

Time: 09:08 (03:38 UTC)

Forecast

The report was made 4 hours and 38 minutes ago, at 23:00 UTC
Forecast valid from 11 at 00 UTC to 11 at 09 UTC
Wind kt from the North
Visibility: 0800 m
Shallow fog
Becoming
from 11 at 04 UTC to 11 at 06 UTC
Visibility: 1500 m
haze

TAF: VEBN 102300Z 1100/1109 00000KT 0800 MIFG NSC BECMG 1104/1106 1500 HZ NSC

Weather observations and forecasts of more than 4000 airports (METAR and TAF reports).

The available stations are represented by yellow and red dots on the map.

Hover mouse over dot to see the name of the station.

Then click to see weather observations and forecasts.

To change the map : click on the green buttons with a black cross to zoom in, on the green button with a dash to zoom out, or on the green arrows for adjacent maps.


METAR-TAF: